Alberta, Alabama
Current Conditions -  °F | °C
As of 9:35 PM on Sunday 28 Dec 2014 (Local Time) from KSEM Reporting Station
Overcast Overcast  
Wind Chill: 15°   Ceiling: 1000
Heat Index: 15°   Visibility: 10mi
Dew Point: 14°   Wind: 7mph
Humidity: 94%   Direction: 300°WNW
Pressure: 30.07"   Gusts: NA
Location:  32.23°N, 87.41°W
Report Text: KSEM 290335Z AUTO 30006KT 10SM BKN010 OVC026 15/14 A3007 RMK AO2
Loading
Personal Weather Stations






























Interactive Weather Map New forecast layout! Learn more

10-Day Weather Forecast

Advertisements
Track Severe Weather on mobile